Time;durP1;ratioP1;P1;durP2;ratioP2;P2;SDS_P1;SDS_P2;PMS_P1;PMS_P2;Temp;Humidity;BMP_temperature;BMP_pressure;BME280_temperature;BME280_humidity;BME280_pressure;Samples;Min_cycle;Max_cycle;Signal;HPM_P1;HPM_P2
2022/10/02 00:00:00;;;;;;;0.4;0.4;;;;;;;13.5;100.0;101190;;;;
2022/10/02 00:01:08;;;;;;;0.4;0.4;;;;;;;13.5;100.0;101190;;;;
2022/10/02 00:02:01;;;;;;;0.4;0.4;;;;;;;13.5;100.0;101190;;;;
2022/10/02 00:03:05;;;;;;;0.4;0.4;;;;;;;13.5;100.0;101190;;;;
2022/10/02 00:04:00;;;;;;;0.4;0.4;;;;;;;13.6;100.0;101190;;;;
2022/10/02 00:05:10;;;;;;;0.4;0.4;;;;;;;13.7;100.0;101200;;;;
2022/10/02 00:06:03;;;;;;;0.4;0.4;;;;;;;13.7;100.0;101200;;;;
2022/10/02 00:07:04;;;;;;;0.4;0.4;;;;;;;13.7;100.0;101200;;;;
2022/10/02 00:08:01;;;;;;;0.4;0.4;;;;;;;13.7;100.0;101200;;;;
2022/10/02 00:09:02;;;;;;;0.4;0.4;;;;;;;13.7;100.0;101200;;;;
2022/10/02 00:10:02;;;;;;;0.4;0.4;;;;;;;13.7;100.0;101200;;;;
2022/10/02 00:11:04;;;;;;;0.4;0.4;;;;;;;13.7;100.0;101200;;;;
2022/10/02 00:12:00;;;;;;;0.4;0.4;;;;;;;13.8;100.0;101200;;;;
2022/10/02 00:13:02;;;;;;;0.4;0.4;;;;;;;13.8;100.0;101200;;;;
2022/10/02 00:14:02;;;;;;;0.4;0.4;;;;;;;13.8;100.0;101200;;;;
2022/10/02 00:15:06;;;;;;;0.4;0.4;;;;;;;13.8;100.0;101200;;;;
2022/10/02 00:16:02;;;;;;;0.4;0.4;;;;;;;13.7;100.0;101200;;;;
2022/10/02 00:17:00;;;;;;;0.4;0.4;;;;;;;13.7;100.0;101200;;;;
2022/10/02 00:18:06;;;;;;;0.4;0.4;;;;;;;13.8;100.0;101200;;;;
2022/10/02 00:19:00;;;;;;;0.4;0.4;;;;;;;13.8;100.0;101200;;;;
2022/10/02 00:20:00;;;;;;;0.4;0.4;;;;;;;13.8;100.0;101200;;;;
2022/10/02 00:21:08;;;;;;;0.4;0.4;;;;;;;13.8;100.0;101200;;;;
2022/10/02 00:22:03;;;;;;;0.4;0.4;;;;;;;13.8;100.0;101200;;;;
2022/10/02 00:23:00;;;;;;;0.4;0.4;;;;;;;13.8;100.0;101200;;;;
2022/10/02 00:24:02;;;;;;;0.4;0.4;;;;;;;13.9;100.0;101200;;;;
2022/10/02 00:25:00;;;;;;;0.4;0.4;;;;;;;13.9;100.0;101200;;;;
2022/10/02 00:26:04;;;;;;;0.4;0.4;;;;;;;13.8;100.0;101200;;;;
2022/10/02 00:27:14;;;;;;;2.6;2.5;;;;;;;13.8;100.0;101200;;;;
2022/10/02 00:28:10;;;;;;;2.6;2.5;;;;;;;13.8;100.0;101200;;;;
2022/10/02 00:29:09;;;;;;;2.6;2.5;;;;;;;13.8;100.0;101200;;;;
2022/10/02 00:30:01;;;;;;;2.6;2.5;;;;;;;13.8;100.0;101200;;;;
2022/10/02 00:31:10;;;;;;;2.6;2.5;;;;;;;13.7;100.0;101200;;;;
2022/10/02 00:32:10;;;;;;;2.6;2.5;;;;;;;13.7;100.0;101200;;;;
2022/10/02 00:33:00;;;;;;;2.6;2.5;;;;;;;13.7;100.0;101200;;;;
2022/10/02 00:34:03;;;;;;;2.6;2.5;;;;;;;13.7;100.0;101200;;;;
2022/10/02 00:35:10;;;;;;;2.6;2.5;;;;;;;13.7;100.0;101210;;;;
2022/10/02 00:36:06;;;;;;;2.6;2.5;;;;;;;13.7;100.0;101210;;;;
2022/10/02 00:37:00;;;;;;;2.6;2.5;;;;;;;13.7;100.0;101210;;;;
2022/10/02 00:38:00;;;;;;;2.6;2.5;;;;;;;13.7;100.0;101200;;;;
2022/10/02 00:39:10;;;;;;;2.6;2.5;;;;;;;13.6;100.0;101210;;;;
2022/10/02 00:40:10;;;;;;;2.6;2.5;;;;;;;13.6;100.0;101210;;;;
2022/10/02 00:41:10;;;;;;;2.6;2.5;;;;;;;13.6;100.0;101210;;;;
2022/10/02 00:42:03;;;;;;;2.6;2.5;;;;;;;13.6;100.0;101210;;;;
2022/10/02 00:43:04;;;;;;;2.6;2.5;;;;;;;13.6;100.0;101210;;;;
2022/10/02 00:44:10;;;;;;;2.6;2.5;;;;;;;13.5;100.0;101210;;;;
2022/10/02 00:45:10;;;;;;;2.6;2.5;;;;;;;13.5;100.0;101210;;;;
2022/10/02 00:46:01;;;;;;;2.6;2.5;;;;;;;13.5;100.0;101210;;;;
2022/10/02 00:47:10;;;;;;;0.5;0.5;;;;;;;13.5;100.0;101210;;;;
2022/10/02 00:48:10;;;;;;;0.5;0.5;;;;;;;13.5;100.0;101210;;;;
2022/10/02 00:49:05;;;;;;;0.5;0.5;;;;;;;13.5;100.0;101210;;;;
2022/10/02 00:50:07;;;;;;;0.5;0.5;;;;;;;13.4;100.0;101210;;;;
2022/10/02 00:51:10;;;;;;;0.5;0.5;;;;;;;13.4;100.0;101210;;;;
2022/10/02 00:52:10;;;;;;;0.5;0.5;;;;;;;13.4;100.0;101210;;;;
2022/10/02 00:53:10;;;;;;;0.5;0.5;;;;;;;13.4;100.0;101210;;;;
2022/10/02 00:54:09;;;;;;;0.5;0.5;;;;;;;13.4;100.0;101210;;;;
2022/10/02 00:55:10;;;;;;;0.5;0.5;;;;;;;13.4;100.0;101210;;;;
2022/10/02 00:56:05;;;;;;;0.5;0.5;;;;;;;13.4;100.0;101210;;;;
2022/10/02 00:57:10;;;;;;;0.5;0.5;;;;;;;13.3;100.0;101210;;;;
2022/10/02 00:58:06;;;;;;;0.5;0.5;;;;;;;13.3;100.0;101210;;;;
2022/10/02 00:59:10;;;;;;;0.5;0.5;;;;;;;13.3;100.0;101200;;;;
2022/10/02 01:00:04;;;;;;;0.5;0.5;;;;;;;13.3;100.0;101200;;;;
2022/10/02 01:01:10;;;;;;;0.5;0.5;;;;;;;13.3;100.0;101200;;;;
2022/10/02 01:02:10;;;;;;;0.5;0.5;;;;;;;13.3;100.0;101200;;;;
2022/10/02 01:03:01;;;;;;;0.5;0.5;;;;;;;13.3;100.0;101200;;;;
2022/10/02 01:04:03;;;;;;;0.5;0.5;;;;;;;13.2;100.0;101200;;;;
2022/10/02 01:05:02;;;;;;;0.5;0.5;;;;;;;13.2;100.0;101200;;;;
2022/10/02 01:06:00;;;;;;;0.5;0.5;;;;;;;13.2;100.0;101200;;;;
2022/10/02 01:07:01;;;;;;;0.7;0.7;;;;;;;13.2;100.0;101200;;;;
2022/10/02 01:08:00;;;;;;;0.7;0.7;;;;;;;13.2;100.0;101200;;;;
2022/10/02 01:09:01;;;;;;;0.7;0.7;;;;;;;13.2;100.0;101200;;;;
2022/10/02 01:10:00;;;;;;;0.7;0.7;;;;;;;13.2;100.0;101200;;;;
2022/10/02 01:11:00;;;;;;;0.7;0.7;;;;;;;13.2;100.0;101200;;;;
2022/10/02 01:12:00;;;;;;;0.7;0.7;;;;;;;13.1;100.0;101200;;;;
2022/10/02 01:13:00;;;;;;;0.7;0.7;;;;;;;13.1;100.0;101200;;;;
2022/10/02 01:14:00;;;;;;;0.7;0.7;;;;;;;13.1;100.0;101200;;;;
2022/10/02 01:15:00;;;;;;;0.7;0.7;;;;;;;13.1;100.0;101200;;;;
2022/10/02 01:16:00;;;;;;;0.7;0.7;;;;;;;13.1;100.0;101200;;;;
2022/10/02 01:17:01;;;;;;;0.7;0.7;;;;;;;13.1;100.0;101200;;;;
2022/10/02 01:18:01;;;;;;;0.7;0.7;;;;;;;13.1;100.0;101200;;;;
2022/10/02 01:19:00;;;;;;;0.7;0.7;;;;;;;13.1;100.0;101200;;;;
2022/10/02 01:20:03;;;;;;;0.7;0.7;;;;;;;13.1;100.0;101200;;;;
2022/10/02 01:21:03;;;;;;;0.7;0.7;;;;;;;13.1;100.0;101200;;;;
2022/10/02 01:22:07;;;;;;;0.7;0.7;;;;;;;13.0;100.0;101200;;;;
2022/10/02 01:23:10;;;;;;;0.7;0.7;;;;;;;13.0;100.0;101200;;;;
2022/10/02 01:24:10;;;;;;;0.7;0.7;;;;;;;13.0;100.0;101200;;;;
2022/10/02 01:25:03;;;;;;;0.7;0.7;;;;;;;13.0;100.0;101200;;;;
2022/10/02 01:26:00;;;;;;;0.7;0.7;;;;;;;13.0;100.0;101200;;;;
2022/10/02 01:27:00;;;;;;;0.4;0.4;;;;;;;13.0;100.0;101200;;;;
2022/10/02 01:28:01;;;;;;;0.4;0.4;;;;;;;12.9;100.0;101200;;;;
2022/10/02 01:29:00;;;;;;;0.4;0.4;;;;;;;12.9;100.0;101200;;;;
2022/10/02 01:30:02;;;;;;;0.4;0.4;;;;;;;12.9;100.0;101200;;;;
2022/10/02 01:31:03;;;;;;;0.4;0.4;;;;;;;12.9;100.0;101200;;;;
2022/10/02 01:32:00;;;;;;;0.4;0.4;;;;;;;12.9;100.0;101200;;;;
2022/10/02 01:33:01;;;;;;;0.4;0.4;;;;;;;12.9;100.0;101200;;;;
2022/10/02 01:34:00;;;;;;;0.4;0.4;;;;;;;12.9;100.0;101200;;;;
2022/10/02 01:35:00;;;;;;;0.4;0.4;;;;;;;12.9;100.0;101200;;;;
2022/10/02 01:36:00;;;;;;;0.4;0.4;;;;;;;12.9;100.0;101200;;;;
2022/10/02 01:37:00;;;;;;;0.4;0.4;;;;;;;12.9;100.0;101200;;;;
2022/10/02 01:38:02;;;;;;;0.4;0.4;;;;;;;13.1;100.0;101210;;;;
2022/10/02 01:39:00;;;;;;;0.4;0.4;;;;;;;13.1;100.0;101210;;;;
2022/10/02 01:40:05;;;;;;;0.4;0.4;;;;;;;13.1;100.0;101210;;;;
2022/10/02 01:41:00;;;;;;;0.4;0.4;;;;;;;13.1;100.0;101210;;;;
2022/10/02 01:42:00;;;;;;;0.4;0.4;;;;;;;13.0;100.0;101210;;;;
2022/10/02 01:43:02;;;;;;;0.4;0.4;;;;;;;13.0;100.0;101210;;;;
2022/10/02 01:44:01;;;;;;;0.4;0.4;;;;;;;13.0;100.0;101210;;;;
2022/10/02 01:45:01;;;;;;;0.4;0.4;;;;;;;13.0;100.0;101210;;;;
2022/10/02 01:46:06;;;;;;;0.4;0.4;;;;;;;13.0;100.0;101210;;;;
2022/10/02 01:47:06;;;;;;;0.4;0.4;;;;;;;13.0;100.0;101210;;;;
2022/10/02 01:48:03;;;;;;;0.4;0.4;;;;;;;13.2;100.0;101210;;;;
2022/10/02 01:49:03;;;;;;;0.4;0.4;;;;;;;13.2;100.0;101210;;;;
2022/10/02 01:50:03;;;;;;;0.4;0.4;;;;;;;13.1;100.0;101210;;;;
2022/10/02 01:51:10;;;;;;;0.4;0.4;;;;;;;13.1;100.0;101210;;;;
2022/10/02 01:52:10;;;;;;;0.4;0.4;;;;;;;13.1;100.0;101210;;;;
2022/10/02 01:53:10;;;;;;;0.4;0.4;;;;;;;13.1;100.0;101210;;;;
2022/10/02 01:54:10;;;;;;;0.4;0.4;;;;;;;13.1;100.0;101210;;;;
2022/10/02 01:55:07;;;;;;;0.4;0.4;;;;;;;13.1;100.0;101210;;;;
2022/10/02 01:56:02;;;;;;;0.4;0.4;;;;;;;13.1;100.0;101210;;;;
2022/10/02 01:57:10;;;;;;;0.4;0.4;;;;;;;13.1;100.0;101210;;;;
2022/10/02 01:58:10;;;;;;;0.4;0.4;;;;;;;13.1;100.0;101210;;;;
2022/10/02 01:59:10;;;;;;;0.4;0.4;;;;;;;13.1;100.0;101210;;;;
2022/10/02 02:00:02;;;;;;;0.4;0.4;;;;;;;13.1;100.0;101210;;;;
2022/10/02 02:01:08;;;;;;;0.4;0.4;;;;;;;13.1;100.0;101210;;;;
2022/10/02 02:02:10;;;;;;;0.4;0.4;;;;;;;13.1;100.0;101210;;;;
2022/10/02 02:03:08;;;;;;;0.4;0.4;;;;;;;13.1;100.0;101210;;;;
2022/10/02 02:04:00;;;;;;;0.4;0.4;;;;;;;13.1;100.0;101210;;;;
2022/10/02 02:05:01;;;;;;;0.4;0.4;;;;;;;13.1;100.0;101210;;;;
2022/10/02 02:06:07;;;;;;;0.4;0.4;;;;;;;13.2;100.0;101210;;;;
2022/10/02 02:07:08;;;;;;;0.4;0.4;;;;;;;13.2;100.0;101210;;;;
2022/10/02 02:08:08;;;;;;;0.4;0.4;;;;;;;13.2;100.0;101210;;;;
2022/10/02 02:09:06;;;;;;;0.4;0.4;;;;;;;13.2;100.0;101210;;;;
2022/10/02 02:10:08;;;;;;;0.4;0.4;;;;;;;13.2;100.0;101210;;;;
2022/10/02 02:11:10;;;;;;;0.4;0.4;;;;;;;13.2;100.0;101220;;;;
2022/10/02 02:12:07;;;;;;;0.4;0.4;;;;;;;13.2;100.0;101220;;;;
2022/10/02 02:13:09;;;;;;;0.4;0.4;;;;;;;13.1;100.0;101220;;;;
2022/10/02 02:14:10;;;;;;;0.4;0.4;;;;;;;13.1;100.0;101220;;;;
2022/10/02 02:15:03;;;;;;;0.4;0.4;;;;;;;13.1;100.0;101220;;;;
2022/10/02 02:16:10;;;;;;;0.4;0.4;;;;;;;13.2;100.0;101220;;;;
2022/10/02 02:17:05;;;;;;;0.4;0.4;;;;;;;13.2;100.0;101220;;;;
2022/10/02 02:18:06;;;;;;;0.4;0.4;;;;;;;13.2;100.0;101230;;;;
2022/10/02 02:19:04;;;;;;;0.4;0.4;;;;;;;13.2;100.0;101230;;;;
2022/10/02 02:20:05;;;;;;;0.4;0.4;;;;;;;13.2;100.0;101230;;;;
2022/10/02 02:21:04;;;;;;;0.4;0.4;;;;;;;13.2;100.0;101230;;;;
2022/10/02 02:22:03;;;;;;;0.4;0.4;;;;;;;13.3;100.0;101230;;;;
2022/10/02 02:23:05;;;;;;;0.4;0.4;;;;;;;13.3;100.0;101230;;;;
2022/10/02 02:24:03;;;;;;;0.4;0.4;;;;;;;13.3;100.0;101230;;;;
2022/10/02 02:25:07;;;;;;;0.4;0.4;;;;;;;13.3;100.0;101230;;;;
2022/10/02 02:26:02;;;;;;;0.4;0.4;;;;;;;13.3;100.0;101230;;;;
2022/10/02 02:27:01;;;;;;;0.6;0.6;;;;;;;13.3;100.0;101230;;;;
2022/10/02 02:28:03;;;;;;;0.6;0.6;;;;;;;13.4;100.0;101230;;;;
2022/10/02 02:29:02;;;;;;;0.6;0.6;;;;;;;13.4;100.0;101230;;;;
2022/10/02 02:30:03;;;;;;;0.6;0.6;;;;;;;13.4;100.0;101230;;;;
2022/10/02 02:31:01;;;;;;;0.6;0.6;;;;;;;13.4;100.0;101230;;;;
2022/10/02 02:32:01;;;;;;;0.6;0.6;;;;;;;13.4;100.0;101230;;;;
2022/10/02 02:33:03;;;;;;;0.6;0.6;;;;;;;13.4;100.0;101230;;;;
2022/10/02 02:34:03;;;;;;;0.6;0.6;;;;;;;13.5;100.0;101230;;;;
2022/10/02 02:35:03;;;;;;;0.6;0.6;;;;;;;13.5;100.0;101230;;;;
2022/10/02 02:36:03;;;;;;;0.6;0.6;;;;;;;13.4;100.0;101230;;;;
2022/10/02 02:37:04;;;;;;;0.6;0.6;;;;;;;13.4;100.0;101230;;;;
2022/10/02 02:38:03;;;;;;;0.6;0.6;;;;;;;13.4;100.0;101220;;;;
2022/10/02 02:39:04;;;;;;;0.6;0.6;;;;;;;13.4;100.0;101220;;;;
2022/10/02 02:40:04;;;;;;;0.6;0.6;;;;;;;13.3;100.0;101230;;;;
2022/10/02 02:41:03;;;;;;;0.6;0.6;;;;;;;13.3;100.0;101230;;;;
2022/10/02 02:42:01;;;;;;;0.6;0.6;;;;;;;13.4;100.0;101230;;;;
2022/10/02 02:43:03;;;;;;;0.6;0.6;;;;;;;13.4;100.0;101230;;;;
2022/10/02 02:44:01;;;;;;;0.6;0.6;;;;;;;13.4;100.0;101220;;;;
2022/10/02 02:45:05;;;;;;;0.6;0.6;;;;;;;13.4;100.0;101220;;;;
2022/10/02 02:46:05;;;;;;;0.6;0.6;;;;;;;13.5;100.0;101230;;;;
2022/10/02 02:47:03;;;;;;;0.6;0.6;;;;;;;13.5;100.0;101230;;;;
2022/10/02 02:48:03;;;;;;;0.6;0.6;;;;;;;13.5;100.0;101220;;;;
2022/10/02 02:49:04;;;;;;;0.6;0.6;;;;;;;13.5;100.0;101220;;;;
2022/10/02 02:50:04;;;;;;;0.6;0.6;;;;;;;13.5;100.0;101220;;;;
2022/10/02 02:51:06;;;;;;;0.6;0.6;;;;;;;13.5;100.0;101220;;;;
2022/10/02 02:52:02;;;;;;;0.6;0.6;;;;;;;13.6;100.0;101220;;;;
2022/10/02 02:53:05;;;;;;;0.6;0.6;;;;;;;13.6;100.0;101220;;;;
2022/10/02 02:54:00;;;;;;;0.6;0.6;;;;;;;13.5;100.0;101220;;;;
2022/10/02 02:55:06;;;;;;;0.6;0.6;;;;;;;13.5;100.0;101220;;;;
2022/10/02 02:56:02;;;;;;;0.6;0.6;;;;;;;13.4;100.0;101230;;;;
2022/10/02 02:57:03;;;;;;;0.6;0.6;;;;;;;13.4;100.0;101230;;;;
2022/10/02 02:58:04;;;;;;;0.6;0.6;;;;;;;13.4;100.0;101220;;;;
2022/10/02 02:59:04;;;;;;;0.6;0.6;;;;;;;13.4;100.0;101220;;;;
2022/10/02 03:00:01;;;;;;;0.6;0.6;;;;;;;13.3;100.0;101230;;;;
2022/10/02 03:01:00;;;;;;;0.6;0.6;;;;;;;13.3;100.0;101230;;;;
2022/10/02 03:02:00;;;;;;;0.6;0.6;;;;;;;13.4;100.0;101240;;;;
2022/10/02 03:03:00;;;;;;;0.6;0.6;;;;;;;13.4;100.0;101240;;;;
2022/10/02 03:04:00;;;;;;;0.6;0.6;;;;;;;13.3;100.0;101230;;;;
2022/10/02 03:05:00;;;;;;;0.6;0.6;;;;;;;13.3;100.0;101230;;;;
2022/10/02 03:06:03;;;;;;;0.6;0.6;;;;;;;13.4;100.0;101220;;;;
2022/10/02 03:07:02;;;;;;;0.6;0.6;;;;;;;13.4;100.0;101220;;;;
2022/10/02 03:08:04;;;;;;;0.6;0.6;;;;;;;13.4;100.0;101220;;;;
2022/10/02 03:09:00;;;;;;;0.6;0.6;;;;;;;13.4;100.0;101220;;;;
2022/10/02 03:10:07;;;;;;;0.6;0.6;;;;;;;13.4;100.0;101220;;;;
2022/10/02 03:11:04;;;;;;;0.6;0.6;;;;;;;13.4;100.0;101220;;;;
2022/10/02 03:12:03;;;;;;;0.6;0.6;;;;;;;13.3;100.0;101220;;;;
2022/10/02 03:13:10;;;;;;;0.6;0.6;;;;;;;13.3;100.0;101220;;;;
2022/10/02 03:14:03;;;;;;;0.6;0.6;;;;;;;13.3;100.0;101220;;;;
2022/10/02 03:15:03;;;;;;;0.6;0.6;;;;;;;13.3;100.0;101220;;;;
2022/10/02 03:16:07;;;;;;;0.6;0.6;;;;;;;13.2;100.0;101220;;;;
2022/10/02 03:17:10;;;;;;;0.6;0.6;;;;;;;13.3;100.0;101210;;;;
2022/10/02 03:18:08;;;;;;;0.6;0.6;;;;;;;13.3;100.0;101210;;;;
2022/10/02 03:19:00;;;;;;;0.6;0.6;;;;;;;13.3;100.0;101210;;;;
2022/10/02 03:20:09;;;;;;;0.6;0.6;;;;;;;13.2;100.0;101220;;;;
2022/10/02 03:21:04;;;;;;;0.6;0.6;;;;;;;13.2;100.0;101220;;;;
2022/10/02 03:22:01;;;;;;;0.6;0.6;;;;;;;13.3;100.0;101230;;;;
2022/10/02 03:23:06;;;;;;;0.6;0.6;;;;;;;13.3;100.0;101230;;;;
2022/10/02 03:24:10;;;;;;;0.6;0.6;;;;;;;13.3;100.0;101230;;;;
2022/10/02 03:25:10;;;;;;;0.6;0.6;;;;;;;13.3;100.0;101230;;;;
2022/10/02 03:26:01;;;;;;;0.6;0.6;;;;;;;13.3;100.0;101230;;;;
2022/10/02 03:27:05;;;;;;;0.6;0.6;;;;;;;13.3;100.0;101230;;;;
2022/10/02 03:28:05;;;;;;;0.6;0.6;;;;;;;13.2;100.0;101230;;;;
2022/10/02 03:29:01;;;;;;;0.6;0.6;;;;;;;13.2;100.0;101230;;;;
2022/10/02 03:30:03;;;;;;;0.6;0.6;;;;;;;13.2;100.0;101240;;;;
2022/10/02 03:31:00;;;;;;;0.6;0.6;;;;;;;13.2;100.0;101240;;;;
2022/10/02 03:32:02;;;;;;;0.6;0.6;;;;;;;13.2;100.0;101240;;;;
2022/10/02 03:33:02;;;;;;;0.6;0.6;;;;;;;13.2;100.0;101240;;;;
2022/10/02 03:34:01;;;;;;;0.6;0.6;;;;;;;13.3;100.0;101240;;;;
2022/10/02 03:35:00;;;;;;;0.6;0.6;;;;;;;13.3;100.0;101240;;;;
2022/10/02 03:36:00;;;;;;;0.6;0.6;;;;;;;13.2;100.0;101240;;;;
2022/10/02 03:37:01;;;;;;;0.6;0.6;;;;;;;13.2;100.0;101240;;;;
2022/10/02 03:38:03;;;;;;;0.6;0.6;;;;;;;13.3;100.0;101240;;;;
2022/10/02 03:39:11;;;;;;;0.6;0.6;;;;;;;13.4;100.0;101230;;;;
2022/10/02 03:40:00;;;;;;;0.6;0.6;;;;;;;13.4;100.0;101230;;;;
2022/10/02 03:41:00;;;;;;;0.6;0.6;;;;;;;13.4;100.0;101230;;;;
2022/10/02 03:42:00;;;;;;;0.6;0.6;;;;;;;13.4;100.0;101230;;;;
2022/10/02 03:43:00;;;;;;;0.6;0.6;;;;;;;13.4;100.0;101230;;;;
2022/10/02 03:44:00;;;;;;;0.6;0.6;;;;;;;13.4;100.0;101240;;;;
2022/10/02 03:45:00;;;;;;;0.6;0.6;;;;;;;13.4;100.0;101240;;;;
2022/10/02 03:46:00;;;;;;;0.6;0.6;;;;;;;13.5;100.0;101230;;;;
2022/10/02 03:47:00;;;;;;;0.6;0.6;;;;;;;13.5;100.0;101230;;;;
2022/10/02 03:48:00;;;;;;;0.6;0.6;;;;;;;13.5;100.0;101230;;;;
2022/10/02 03:49:00;;;;;;;0.6;0.6;;;;;;;13.5;100.0;101230;;;;
2022/10/02 03:50:00;;;;;;;0.6;0.6;;;;;;;13.5;100.0;101230;;;;
2022/10/02 03:51:00;;;;;;;0.6;0.6;;;;;;;13.5;100.0;101230;;;;
2022/10/02 03:52:01;;;;;;;0.6;0.6;;;;;;;13.5;100.0;101230;;;;
2022/10/02 03:53:00;;;;;;;0.6;0.6;;;;;;;13.5;100.0;101230;;;;
2022/10/02 03:54:00;;;;;;;0.6;0.6;;;;;;;13.5;100.0;101240;;;;
2022/10/02 03:55:02;;;;;;;0.6;0.6;;;;;;;13.5;100.0;101240;;;;
2022/10/02 03:56:05;;;;;;;0.6;0.6;;;;;;;13.6;100.0;101240;;;;
2022/10/02 03:57:03;;;;;;;0.6;0.6;;;;;;;13.6;100.0;101240;;;;
2022/10/02 03:58:04;;;;;;;0.6;0.6;;;;;;;13.5;100.0;101230;;;;
2022/10/02 03:59:00;;;;;;;0.6;0.6;;;;;;;13.5;100.0;101230;;;;
2022/10/02 04:00:05;;;;;;;0.6;0.6;;;;;;;13.5;100.0;101230;;;;
2022/10/02 04:01:03;;;;;;;0.6;0.6;;;;;;;13.5;100.0;101230;;;;
2022/10/02 04:02:02;;;;;;;0.6;0.6;;;;;;;13.5;100.0;101230;;;;
2022/10/02 04:03:02;;;;;;;0.6;0.6;;;;;;;13.5;100.0;101230;;;;
2022/10/02 04:04:00;;;;;;;0.6;0.6;;;;;;;13.5;100.0;101230;;;;
2022/10/02 04:05:04;;;;;;;0.6;0.6;;;;;;;13.5;100.0;101230;;;;
2022/10/02 04:06:03;;;;;;;0.4;0.4;;;;;;;13.6;100.0;101230;;;;
2022/10/02 04:07:03;;;;;;;0.4;0.4;;;;;;;13.6;100.0;101230;;;;
2022/10/02 04:08:02;;;;;;;0.4;0.4;;;;;;;13.6;100.0;101230;;;;
2022/10/02 04:09:03;;;;;;;0.4;0.4;;;;;;;13.6;100.0;101230;;;;
2022/10/02 04:10:01;;;;;;;0.4;0.4;;;;;;;13.5;100.0;101230;;;;
2022/10/02 04:11:07;;;;;;;0.4;0.4;;;;;;;13.5;100.0;101230;;;;
2022/10/02 04:12:03;;;;;;;0.4;0.4;;;;;;;13.5;100.0;101230;;;;
2022/10/02 04:13:03;;;;;;;0.4;0.4;;;;;;;13.5;100.0;101230;;;;
2022/10/02 04:14:07;;;;;;;0.4;0.4;;;;;;;13.5;100.0;101230;;;;
2022/10/02 04:15:05;;;;;;;0.4;0.4;;;;;;;13.5;100.0;101230;;;;
2022/10/02 04:16:07;;;;;;;0.4;0.4;;;;;;;13.4;100.0;101240;;;;
2022/10/02 04:17:07;;;;;;;0.4;0.4;;;;;;;13.4;100.0;101240;;;;
2022/10/02 04:18:06;;;;;;;0.4;0.4;;;;;;;13.5;100.0;101240;;;;
2022/10/02 04:19:07;;;;;;;0.4;0.4;;;;;;;13.4;100.0;101240;;;;
2022/10/02 04:20:04;;;;;;;0.4;0.4;;;;;;;13.4;100.0;101240;;;;
2022/10/02 04:21:08;;;;;;;0.4;0.4;;;;;;;13.5;100.0;101230;;;;
2022/10/02 04:22:05;;;;;;;0.4;0.4;;;;;;;13.5;100.0;101230;;;;
2022/10/02 04:23:05;;;;;;;0.4;0.4;;;;;;;13.5;100.0;101230;;;;
2022/10/02 04:24:07;;;;;;;0.4;0.4;;;;;;;13.5;100.0;101230;;;;
2022/10/02 04:25:05;;;;;;;0.4;0.4;;;;;;;13.5;100.0;101230;;;;
2022/10/02 04:26:03;;;;;;;2.1;1.2;;;;;;;13.5;100.0;101230;;;;
2022/10/02 04:27:03;;;;;;;2.1;1.2;;;;;;;13.5;100.0;101230;;;;
2022/10/02 04:28:10;;;;;;;2.1;1.2;;;;;;;13.5;100.0;101230;;;;
2022/10/02 04:29:05;;;;;;;2.1;1.2;;;;;;;13.5;100.0;101230;;;;
2022/10/02 04:30:05;;;;;;;2.1;1.2;;;;;;;13.5;100.0;101230;;;;
2022/10/02 04:31:01;;;;;;;2.1;1.2;;;;;;;13.5;100.0;101230;;;;
2022/10/02 04:32:09;;;;;;;2.1;1.2;;;;;;;13.4;100.0;101220;;;;
2022/10/02 04:33:09;;;;;;;2.1;1.2;;;;;;;13.4;100.0;101220;;;;
2022/10/02 04:34:02;;;;;;;2.1;1.2;;;;;;;13.4;100.0;101220;;;;
2022/10/02 04:35:01;;;;;;;2.1;1.2;;;;;;;13.4;100.0;101220;;;;
2022/10/02 04:36:10;;;;;;;2.1;1.2;;;;;;;13.3;100.0;101230;;;;
2022/10/02 04:37:03;;;;;;;2.1;1.2;;;;;;;13.3;100.0;101230;;;;
2022/10/02 04:38:10;;;;;;;2.1;1.2;;;;;;;13.3;100.0;101230;;;;
2022/10/02 04:39:10;;;;;;;2.1;1.2;;;;;;;13.2;100.0;101240;;;;
2022/10/02 04:40:05;;;;;;;2.1;1.2;;;;;;;13.2;100.0;101240;;;;
2022/10/02 04:41:10;;;;;;;2.1;1.2;;;;;;;13.3;100.0;101240;;;;
2022/10/02 04:42:13;;;;;;;2.1;1.2;;;;;;;13.3;100.0;101240;;;;
2022/10/02 04:43:10;;;;;;;2.1;1.2;;;;;;;13.2;100.0;101240;;;;
2022/10/02 04:44:03;;;;;;;2.1;1.2;;;;;;;13.2;100.0;101240;;;;
2022/10/02 04:45:09;;;;;;;2.1;1.2;;;;;;;13.2;100.0;101250;;;;
2022/10/02 04:46:07;;;;;;;0.4;0.4;;;;;;;13.2;100.0;101250;;;;
2022/10/02 04:47:07;;;;;;;0.4;0.4;;;;;;;13.2;100.0;101250;;;;
2022/10/02 04:48:10;;;;;;;0.4;0.4;;;;;;;13.2;100.0;101260;;;;
2022/10/02 04:49:00;;;;;;;0.4;0.4;;;;;;;13.2;100.0;101260;;;;
2022/10/02 04:50:10;;;;;;;0.4;0.4;;;;;;;13.2;100.0;101270;;;;
2022/10/02 04:51:10;;;;;;;0.4;0.4;;;;;;;13.2;100.0;101270;;;;
2022/10/02 04:52:00;;;;;;;0.4;0.4;;;;;;;13.2;100.0;101270;;;;
2022/10/02 04:53:11;;;;;;;0.4;0.4;;;;;;;13.1;100.0;101270;;;;
2022/10/02 04:54:00;;;;;;;0.4;0.4;;;;;;;13.1;100.0;101270;;;;
2022/10/02 04:55:01;;;;;;;0.4;0.4;;;;;;;13.1;100.0;101270;;;;
2022/10/02 04:56:03;;;;;;;0.4;0.4;;;;;;;13.1;100.0;101270;;;;
2022/10/02 04:57:10;;;;;;;0.4;0.4;;;;;;;13.1;100.0;101280;;;;
2022/10/02 04:58:10;;;;;;;0.4;0.4;;;;;;;13.1;100.0;101280;;;;
2022/10/02 04:59:00;;;;;;;0.4;0.4;;;;;;;13.1;100.0;101280;;;;
2022/10/02 05:00:00;;;;;;;0.4;0.4;;;;;;;13.1;100.0;101280;;;;
2022/10/02 05:01:09;;;;;;;0.4;0.4;;;;;;;13.1;100.0;101280;;;;
2022/10/02 05:02:07;;;;;;;0.4;0.4;;;;;;;13.1;100.0;101280;;;;
2022/10/02 05:03:10;;;;;;;0.4;0.4;;;;;;;13.1;100.0;101280;;;;
2022/10/02 05:04:09;;;;;;;0.4;0.4;;;;;;;13.1;100.0;101280;;;;
2022/10/02 05:05:10;;;;;;;0.4;0.4;;;;;;;13.1;100.0;101280;;;;
2022/10/02 05:06:07;;;;;;;1.2;1.2;;;;;;;13.1;100.0;101280;;;;
2022/10/02 05:07:00;;;;;;;1.2;1.2;;;;;;;13.1;100.0;101280;;;;
2022/10/02 05:08:10;;;;;;;1.2;1.2;;;;;;;13.0;100.0;101290;;;;
2022/10/02 05:09:09;;;;;;;1.2;1.2;;;;;;;13.0;100.0;101290;;;;
2022/10/02 05:10:09;;;;;;;1.2;1.2;;;;;;;13.0;100.0;101290;;;;
2022/10/02 05:11:00;;;;;;;1.2;1.2;;;;;;;13.0;100.0;101290;;;;
2022/10/02 05:12:10;;;;;;;1.2;1.2;;;;;;;13.1;100.0;101280;;;;
2022/10/02 05:13:03;;;;;;;1.2;1.2;;;;;;;13.1;100.0;101280;;;;
2022/10/02 05:14:00;;;;;;;1.2;1.2;;;;;;;13.0;100.0;101280;;;;
2022/10/02 05:15:10;;;;;;;1.2;1.2;;;;;;;13.0;100.0;101280;;;;
2022/10/02 05:16:10;;;;;;;1.2;1.2;;;;;;;13.0;100.0;101280;;;;
2022/10/02 05:17:07;;;;;;;1.2;1.2;;;;;;;13.0;100.0;101280;;;;
2022/10/02 05:18:14;;;;;;;1.2;1.2;;;;;;;13.0;100.0;101270;;;;
2022/10/02 05:19:10;;;;;;;1.2;1.2;;;;;;;13.1;100.0;101280;;;;
2022/10/02 05:20:10;;;;;;;1.2;1.2;;;;;;;13.1;100.0;101280;;;;
2022/10/02 05:21:06;;;;;;;1.2;1.2;;;;;;;13.1;100.0;101280;;;;
2022/10/02 05:22:10;;;;;;;1.2;1.2;;;;;;;13.1;100.0;101280;;;;
2022/10/02 05:23:00;;;;;;;1.2;1.2;;;;;;;13.1;100.0;101280;;;;
2022/10/02 05:24:07;;;;;;;1.2;1.2;;;;;;;13.1;100.0;101280;;;;
2022/10/02 05:25:03;;;;;;;1.2;1.2;;;;;;;13.1;100.0;101280;;;;
2022/10/02 05:26:14;;;;;;;0.5;0.5;;;;;;;13.0;100.0;101280;;;;
2022/10/02 05:27:00;;;;;;;0.5;0.5;;;;;;;13.0;100.0;101280;;;;
2022/10/02 05:28:01;;;;;;;0.5;0.5;;;;;;;13.0;100.0;101280;;;;
2022/10/02 05:29:10;;;;;;;0.5;0.5;;;;;;;13.0;100.0;101290;;;;
2022/10/02 05:30:01;;;;;;;0.5;0.5;;;;;;;13.0;100.0;101290;;;;
2022/10/02 05:31:02;;;;;;;0.5;0.5;;;;;;;13.0;100.0;101290;;;;
2022/10/02 05:32:14;;;;;;;0.5;0.5;;;;;;;13.0;100.0;101290;;;;
2022/10/02 05:33:10;;;;;;;0.5;0.5;;;;;;;13.1;100.0;101300;;;;
2022/10/02 05:34:00;;;;;;;0.5;0.5;;;;;;;13.1;100.0;101300;;;;
2022/10/02 05:35:00;;;;;;;0.5;0.5;;;;;;;13.1;100.0;101300;;;;
2022/10/02 05:36:00;;;;;;;0.5;0.5;;;;;;;13.1;100.0;101290;;;;
2022/10/02 05:37:10;;;;;;;0.5;0.5;;;;;;;13.2;100.0;101290;;;;
2022/10/02 05:38:03;;;;;;;0.5;0.5;;;;;;;13.2;100.0;101290;;;;
2022/10/02 05:39:03;;;;;;;0.5;0.5;;;;;;;13.2;100.0;101290;;;;
2022/10/02 05:40:03;;;;;;;0.5;0.5;;;;;;;13.1;100.0;101290;;;;
2022/10/02 05:41:06;;;;;;;0.5;0.5;;;;;;;13.1;100.0;101290;;;;
2022/10/02 05:42:01;;;;;;;0.5;0.5;;;;;;;13.1;100.0;101300;;;;
2022/10/02 05:43:07;;;;;;;0.5;0.5;;;;;;;13.1;100.0;101300;;;;
2022/10/02 05:44:05;;;;;;;0.5;0.5;;;;;;;13.1;100.0;101300;;;;
2022/10/02 05:45:02;;;;;;;0.5;0.5;;;;;;;13.1;100.0;101300;;;;
2022/10/02 05:46:05;;;;;;;0.5;0.5;;;;;;;13.1;100.0;101300;;;;
2022/10/02 05:47:06;;;;;;;0.5;0.5;;;;;;;13.1;100.0;101300;;;;
2022/10/02 05:48:10;;;;;;;0.5;0.5;;;;;;;13.2;100.0;101310;;;;
2022/10/02 05:49:04;;;;;;;0.5;0.5;;;;;;;13.2;100.0;101310;;;;
2022/10/02 05:50:04;;;;;;;0.5;0.5;;;;;;;13.1;100.0;101300;;;;
2022/10/02 05:51:06;;;;;;;0.5;0.5;;;;;;;13.1;100.0;101300;;;;
2022/10/02 05:52:10;;;;;;;0.5;0.5;;;;;;;13.1;100.0;101310;;;;
2022/10/02 05:53:05;;;;;;;0.5;0.5;;;;;;;13.1;100.0;101310;;;;
2022/10/02 05:54:03;;;;;;;0.5;0.5;;;;;;;13.1;100.0;101310;;;;
2022/10/02 05:55:10;;;;;;;0.5;0.5;;;;;;;13.0;100.0;101310;;;;
2022/10/02 05:56:10;;;;;;;0.5;0.5;;;;;;;13.0;100.0;101310;;;;
2022/10/02 05:57:10;;;;;;;0.5;0.5;;;;;;;13.1;100.0;101310;;;;
2022/10/02 05:58:04;;;;;;;0.5;0.5;;;;;;;13.1;100.0;101310;;;;
2022/10/02 05:59:06;;;;;;;0.5;0.5;;;;;;;13.1;100.0;101310;;;;
2022/10/02 06:00:03;;;;;;;0.5;0.5;;;;;;;13.2;100.0;101310;;;;
2022/10/02 06:01:10;;;;;;;0.5;0.5;;;;;;;13.1;100.0;101310;;;;
2022/10/02 06:02:03;;;;;;;0.5;0.5;;;;;;;13.1;100.0;101310;;;;
2022/10/02 06:03:01;;;;;;;0.5;0.5;;;;;;;13.1;100.0;101310;;;;
2022/10/02 06:04:05;;;;;;;0.5;0.5;;;;;;;13.1;100.0;101320;;;;
2022/10/02 06:05:10;;;;;;;0.5;0.5;;;;;;;13.1;100.0;101320;;;;
2022/10/02 06:06:10;;;;;;;0.5;0.5;;;;;;;13.1;100.0;101320;;;;
2022/10/02 06:07:06;;;;;;;0.5;0.5;;;;;;;13.1;100.0;101320;;;;
2022/10/02 06:08:02;;;;;;;0.5;0.5;;;;;;;13.1;100.0;101320;;;;
2022/10/02 06:09:00;;;;;;;0.5;0.5;;;;;;;13.1;100.0;101320;;;;
2022/10/02 06:10:05;;;;;;;0.5;0.5;;;;;;;13.1;100.0;101320;;;;
2022/10/02 06:11:05;;;;;;;0.5;0.5;;;;;;;13.1;100.0;101320;;;;
2022/10/02 06:12:02;;;;;;;0.5;0.5;;;;;;;13.2;100.0;101310;;;;
2022/10/02 06:13:07;;;;;;;0.5;0.5;;;;;;;13.2;100.0;101310;;;;
2022/10/02 06:14:06;;;;;;;0.5;0.5;;;;;;;13.2;100.0;101310;;;;
2022/10/02 06:15:00;;;;;;;0.5;0.5;;;;;;;13.2;100.0;101310;;;;
2022/10/02 06:16:00;;;;;;;0.5;0.5;;;;;;;13.3;100.0;101310;;;;
2022/10/02 06:17:03;;;;;;;0.5;0.5;;;;;;;13.3;100.0;101310;;;;
2022/10/02 06:18:04;;;;;;;0.5;0.5;;;;;;;13.2;100.0;101320;;;;
2022/10/02 06:19:03;;;;;;;0.5;0.5;;;;;;;13.2;100.0;101320;;;;
2022/10/02 06:20:04;;;;;;;0.5;0.5;;;;;;;13.2;100.0;101330;;;;
2022/10/02 06:21:03;;;;;;;0.5;0.5;;;;;;;13.2;100.0;101330;;;;
2022/10/02 06:22:08;;;;;;;0.5;0.5;;;;;;;13.4;100.0;101340;;;;